Time;durP1;ratioP1;P1;durP2;ratioP2;P2;SDS_P1;SDS_P2;PMS_P1;PMS_P2;Temp;Humidity;BMP_temperature;BMP_pressure;BME280_temperature;BME280_humidity;BME280_pressure;Samples;Min_cycle;Max_cycle;Signal;HPM_P1;HPM_P2
2023/12/18 00:02:19;;;;;;;21.17;9.80;;;8.00;99.90;;;;;;5069538;28;20044;-83
2023/12/18 00:04:45;;;;;;;24.52;10.05;;;8.00;99.90;;;;;;5053996;28;20492;-82
2023/12/18 00:07:10;;;;;;;22.45;10.38;;;8.70;99.90;;;;;;5052001;28;20138;-82
2023/12/18 00:09:38;;;;;;;23.92;10.07;;;8.10;99.90;;;;;;5051819;28;20483;-82
2023/12/18 00:12:04;;;;;;;24.30;10.65;;;8.00;99.90;;;;;;5051667;28;20049;-83
2023/12/18 00:14:29;;;;;;;26.17;11.50;;;8.00;99.90;;;;;;5052172;28;20052;-82
2023/12/18 00:16:55;;;;;;;24.92;10.77;;;8.00;99.90;;;;;;5051887;28;20141;-82
2023/12/18 00:19:21;;;;;;;22.15;10.20;;;8.00;99.90;;;;;;5059656;28;20530;-82
2023/12/18 00:21:47;;;;;;;21.42;9.80;;;8.10;99.90;;;;;;5056695;28;20052;-82
2023/12/18 00:24:13;;;;;;;23.95;10.13;;;8.60;99.90;;;;;;5071586;28;20048;-82
2023/12/18 00:26:38;;;;;;;24.50;11.10;;;8.00;99.90;;;;;;5071793;28;20037;-82
2023/12/18 00:29:04;;;;;;;20.77;10.90;;;8.00;99.90;;;;;;5071525;28;20048;-83
2023/12/18 00:31:30;;;;;;;27.05;11.30;;;8.10;99.90;;;;;;5050574;28;20039;-82
2023/12/18 00:33:55;;;;;;;24.10;11.38;;;8.30;99.90;;;;;;5051591;28;20045;-82
2023/12/18 00:36:22;;;;;;;29.50;11.52;;;8.00;99.90;;;;;;5051665;28;20079;-82
2023/12/18 00:38:47;;;;;;;32.30;13.38;;;8.00;99.90;;;;;;5051761;28;20362;-83
2023/12/18 00:41:13;;;;;;;27.20;11.32;;;8.10;99.90;;;;;;5055383;28;20090;-82
2023/12/18 00:43:38;;;;;;;27.27;10.98;;;8.00;99.90;;;;;;5064750;28;20060;-82
2023/12/18 00:46:05;;;;;;;29.50;10.80;;;8.00;99.90;;;;;;5051690;28;20067;-82
2023/12/18 00:48:31;;;;;;;22.70;10.35;;;8.00;99.90;;;;;;5053604;28;20095;-82
2023/12/18 00:50:56;;;;;;;23.92;11.30;;;8.00;99.90;;;;;;5071125;28;20510;-82
2023/12/18 00:53:22;;;;;;;27.70;11.27;;;8.00;99.90;;;;;;5065001;28;20694;-82
2023/12/18 00:55:48;;;;;;;25.05;11.05;;;8.00;99.90;;;;;;5050926;28;20124;-82
2023/12/18 00:58:13;;;;;;;31.08;11.43;;;8.00;99.90;;;;;;5050959;28;20156;-82
2023/12/18 01:00:39;;;;;;;23.73;10.63;;;8.00;99.90;;;;;;5062380;28;20041;-83
2023/12/18 01:03:05;;;;;;;24.70;11.57;;;8.20;99.90;;;;;;5068992;28;20472;-82
2023/12/18 01:05:31;;;;;;;27.90;10.82;;;8.30;99.90;;;;;;5064863;28;20055;-82
2023/12/18 01:07:57;;;;;;;23.67;10.80;;;8.00;99.90;;;;;;5067380;28;20044;-82
2023/12/18 01:10:23;;;;;;;25.88;11.10;;;8.00;99.90;;;;;;5074863;28;20040;-82
2023/12/18 01:12:48;;;;;;;22.48;10.90;;;8.00;99.90;;;;;;5074341;28;20048;-85
2023/12/18 01:15:14;;;;;;;23.48;9.80;;;8.00;99.90;;;;;;5064117;28;20047;-82
2023/12/18 01:17:40;;;;;;;27.73;10.55;;;8.00;99.90;;;;;;5074245;28;20040;-83
2023/12/18 01:20:06;;;;;;;24.27;10.48;;;8.10;99.90;;;;;;5074858;28;20131;-83
2023/12/18 01:22:32;;;;;;;22.25;9.77;;;8.00;99.90;;;;;;5075219;28;20040;-82
2023/12/18 01:24:58;;;;;;;18.10;9.23;;;8.00;99.90;;;;;;5055422;28;20102;-82
2023/12/18 01:27:23;;;;;;;24.08;9.77;;;8.70;99.90;;;;;;5058517;28;20043;-82
2023/12/18 01:29:49;;;;;;;28.27;10.48;;;8.00;99.90;;;;;;5053532;28;20080;-82
2023/12/18 01:32:15;;;;;;;21.90;10.35;;;8.10;99.90;;;;;;5060745;28;20094;-83
2023/12/18 01:34:40;;;;;;;25.73;9.57;;;8.00;99.90;;;;;;5072607;28;20053;-82
2023/12/18 01:37:06;;;;;;;23.95;9.73;;;8.00;99.90;;;;;;5073318;28;20044;-82
2023/12/18 01:39:32;;;;;;;26.35;9.85;;;8.70;99.90;;;;;;5074567;28;20043;-82
2023/12/18 01:42:01;;;;;;;23.10;9.40;;;8.10;99.90;;;;;;5056616;28;20051;-82
2023/12/18 01:44:26;;;;;;;28.45;9.80;;;8.10;99.90;;;;;;5066996;28;20494;-82
2023/12/18 01:46:53;;;;;;;15.88;8.35;;;8.10;99.90;;;;;;5074640;28;20049;-82
2023/12/18 01:49:19;;;;;;;24.75;9.63;;;8.10;99.90;;;;;;5074062;28;20106;-82
2023/12/18 01:51:45;;;;;;;27.27;10.23;;;8.10;99.90;;;;;;5068521;28;20216;-82
2023/12/18 01:54:11;;;;;;;21.70;10.27;;;8.20;99.90;;;;;;5054368;28;20469;-83
2023/12/18 01:56:39;;;;;;;22.52;9.13;;;8.10;99.90;;;;;;5054328;28;20045;-82
2023/12/18 01:59:06;;;;;;;24.33;10.00;;;8.30;99.90;;;;;;5053958;28;20048;-82
2023/12/18 02:01:32;;;;;;;27.63;9.77;;;8.10;99.90;;;;;;5055148;28;20041;-83
2023/12/18 02:03:58;;;;;;;22.55;9.15;;;8.30;99.90;;;;;;5065439;28;20179;-82
2023/12/18 02:06:24;;;;;;;23.85;9.68;;;8.20;99.90;;;;;;5053636;28;20444;-82
2023/12/18 02:08:50;;;;;;;23.77;9.63;;;8.10;99.90;;;;;;5054097;28;20419;-82
2023/12/18 02:11:15;;;;;;;21.48;8.88;;;8.20;99.90;;;;;;5054032;28;20139;-82
2023/12/18 02:13:42;;;;;;;20.63;8.40;;;8.10;99.90;;;;;;5053992;28;20400;-82
2023/12/18 02:16:08;;;;;;;22.20;10.18;;;8.10;99.90;;;;;;5063119;28;20492;-82
2023/12/18 02:18:34;;;;;;;22.98;9.50;;;8.10;99.90;;;;;;5073475;28;20074;-82
2023/12/18 02:20:59;;;;;;;18.85;8.65;;;8.20;99.90;;;;;;5073872;28;20431;-82
2023/12/18 02:23:25;;;;;;;24.52;9.85;;;8.10;99.90;;;;;;5071003;28;20059;-82
2023/12/18 02:25:51;;;;;;;27.20;9.77;;;8.30;99.90;;;;;;5053608;28;20721;-82
2023/12/18 02:28:17;;;;;;;23.38;9.40;;;8.50;99.90;;;;;;5053731;28;20098;-82
2023/12/18 02:30:44;;;;;;;21.48;9.43;;;8.10;99.90;;;;;;5053620;28;20045;-82
2023/12/18 02:33:09;;;;;;;20.65;10.43;;;8.50;99.90;;;;;;5053772;28;20045;-82
2023/12/18 02:35:35;;;;;;;27.20;10.52;;;8.70;99.90;;;;;;5071965;28;20094;-82
2023/12/18 02:38:01;;;;;;;21.70;9.80;;;8.40;99.90;;;;;;5072651;28;20380;-83
2023/12/18 02:40:27;;;;;;;26.38;10.57;;;8.10;99.90;;;;;;5053269;28;20041;-83
2023/12/18 02:42:53;;;;;;;23.90;11.32;;;8.30;99.90;;;;;;5053404;28;20060;-82
2023/12/18 02:45:18;;;;;;;24.92;10.75;;;8.20;99.90;;;;;;5055851;28;20045;-82
2023/12/18 02:47:44;;;;;;;20.45;10.23;;;8.10;99.90;;;;;;5054366;28;20044;-82
2023/12/18 02:50:10;;;;;;;25.02;10.73;;;8.50;99.90;;;;;;5053088;28;20076;-82
2023/12/18 02:52:36;;;;;;;23.63;9.90;;;8.10;99.90;;;;;;5052960;28;20086;-82
2023/12/18 02:55:02;;;;;;;23.58;10.43;;;8.10;99.90;;;;;;5053104;28;20386;-82
2023/12/18 02:57:28;;;;;;;25.30;10.50;;;8.10;99.90;;;;;;5071861;28;20040;-82
2023/12/18 02:59:53;;;;;;;23.00;10.48;;;8.10;99.90;;;;;;5072689;28;20044;-82
2023/12/18 03:02:19;;;;;;;19.85;10.00;;;8.10;99.90;;;;;;5073012;28;20040;-82
2023/12/18 03:04:45;;;;;;;20.67;9.18;;;8.10;99.90;;;;;;5055661;28;20125;-82
2023/12/18 03:07:11;;;;;;;22.25;9.65;;;8.10;99.90;;;;;;5052721;28;20055;-82
2023/12/18 03:09:37;;;;;;;19.60;9.68;;;8.10;99.90;;;;;;5052741;28;20121;-82
2023/12/18 03:12:03;;;;;;;27.20;10.38;;;8.10;99.90;;;;;;5052748;28;20088;-82
2023/12/18 03:14:28;;;;;;;28.77;10.88;;;8.10;99.90;;;;;;5052205;28;20163;-81
2023/12/18 03:16:54;;;;;;;26.25;11.02;;;8.10;99.90;;;;;;5052679;28;20045;-82
2023/12/18 03:19:20;;;;;;;23.20;11.82;;;8.10;99.90;;;;;;5052271;28;20049;-82
2023/12/18 03:21:46;;;;;;;24.73;13.27;;;8.10;99.90;;;;;;5052702;28;20049;-81
2023/12/18 03:24:12;;;;;;;30.98;13.70;;;8.10;99.90;;;;;;5053205;28;20045;-82
2023/12/18 03:26:37;;;;;;;66.38;14.43;;;8.10;99.90;;;;;;5053980;28;20424;-82
2023/12/18 03:29:03;;;;;;;23.90;12.02;;;8.10;99.90;;;;;;5053433;28;20041;-82
2023/12/18 03:31:29;;;;;;;29.25;14.98;;;8.10;99.90;;;;;;5052139;28;20037;-86
2023/12/18 03:33:55;;;;;;;30.92;13.23;;;8.10;99.90;;;;;;5064310;28;20059;-82
2023/12/18 03:36:20;;;;;;;27.48;12.75;;;8.10;99.90;;;;;;5052326;28;20484;-81
2023/12/18 03:38:46;;;;;;;27.20;11.95;;;8.10;99.90;;;;;;5051756;28;20088;-81
2023/12/18 03:41:12;;;;;;;28.58;11.85;;;8.10;99.90;;;;;;5051973;28;20049;-81
2023/12/18 03:43:38;;;;;;;29.35;12.43;;;8.10;99.90;;;;;;5052252;28;20106;-82
2023/12/18 03:46:04;;;;;;;22.92;11.48;;;8.10;99.90;;;;;;5052368;28;20041;-82
2023/12/18 03:48:30;;;;;;;25.92;11.88;;;8.10;99.90;;;;;;5062153;28;20047;-82
2023/12/18 03:50:56;;;;;;;23.25;10.20;;;8.10;99.90;;;;;;5052311;28;20087;-82
2023/12/18 03:53:22;;;;;;;28.92;10.90;;;8.60;99.90;;;;;;5056457;28;20075;-82
2023/12/18 03:55:48;;;;;;;27.50;11.88;;;8.10;99.90;;;;;;5045089;28;20045;-81
2023/12/18 03:58:13;;;;;;;27.27;10.68;;;8.40;99.90;;;;;;5061428;28;20472;-82
2023/12/18 04:00:39;;;;;;;25.63;10.75;;;8.10;99.90;;;;;;5063867;28;20087;-81
2023/12/18 04:03:05;;;;;;;26.65;10.95;;;8.10;99.90;;;;;;5052604;28;20381;-82
2023/12/18 04:05:31;;;;;;;22.52;11.00;;;8.10;99.90;;;;;;5051985;28;20059;-82
2023/12/18 04:07:56;;;;;;;24.58;10.57;;;8.10;99.90;;;;;;5052001;28;20080;-81
2023/12/18 04:10:22;;;;;;;21.70;10.43;;;8.40;99.90;;;;;;5051997;28;20047;-81
2023/12/18 04:12:48;;;;;;;25.42;11.65;;;8.10;99.90;;;;;;5051736;28;20049;-82
2023/12/18 04:15:13;;;;;;;26.40;11.82;;;8.10;99.90;;;;;;5053658;28;20077;-82
2023/12/18 04:17:39;;;;;;;24.17;10.52;;;8.10;99.90;;;;;;5053099;28;20388;-82
2023/12/18 04:20:05;;;;;;;32.70;11.70;;;8.10;99.90;;;;;;5071920;28;20087;-82
2023/12/18 04:22:32;;;;;;;25.95;10.82;;;8.10;99.90;;;;;;5052969;28;20080;-82
2023/12/18 04:24:58;;;;;;;21.60;10.63;;;8.20;99.90;;;;;;5066928;28;20041;-82
2023/12/18 04:27:23;;;;;;;26.88;11.48;;;8.20;99.90;;;;;;5071520;28;20173;-81
2023/12/18 04:29:49;;;;;;;23.60;10.68;;;8.20;99.90;;;;;;5071277;28;20044;-81
2023/12/18 04:32:15;;;;;;;24.38;10.80;;;8.10;99.90;;;;;;5070508;28;20067;-81
2023/12/18 04:34:42;;;;;;;25.00;9.73;;;8.10;99.90;;;;;;5071549;28;20044;-82
2023/12/18 04:37:09;;;;;;;27.17;10.90;;;8.10;99.90;;;;;;5055555;28;20041;-82
2023/12/18 04:39:35;;;;;;;22.90;10.40;;;8.20;99.90;;;;;;5055401;28;20381;-82
2023/12/18 04:42:01;;;;;;;29.42;10.88;;;8.10;99.90;;;;;;5066130;28;20511;-81
2023/12/18 04:44:26;;;;;;;24.38;10.20;;;8.20;99.90;;;;;;5067153;28;20088;-81
2023/12/18 04:46:52;;;;;;;24.35;10.88;;;8.20;99.90;;;;;;5056095;28;20056;-81
2023/12/18 04:49:18;;;;;;;28.33;10.77;;;8.20;99.90;;;;;;5055146;28;20045;-81
2023/12/18 04:51:44;;;;;;;20.60;10.13;;;8.20;99.90;;;;;;5055018;28;20045;-81
2023/12/18 04:54:10;;;;;;;25.95;10.70;;;8.20;99.90;;;;;;5054213;28;20119;-81
2023/12/18 04:56:36;;;;;;;21.33;10.40;;;8.20;99.90;;;;;;5068227;28;20100;-81
2023/12/18 04:59:02;;;;;;;21.52;10.00;;;8.20;99.90;;;;;;5073951;28;20045;-81
2023/12/18 05:01:28;;;;;;;31.08;10.93;;;8.20;99.90;;;;;;5072845;28;20067;-81
2023/12/18 05:03:54;;;;;;;22.55;11.98;;;8.20;99.90;;;;;;5062945;28;20080;-81
2023/12/18 05:06:25;;;;;;;25.20;10.63;;;8.20;99.90;;;;;;5053726;28;20137;-81
2023/12/18 05:08:51;;;;;;;21.95;10.38;;;8.20;99.90;;;;;;5060696;28;20421;-81
2023/12/18 05:11:18;;;;;;;22.23;10.98;;;8.20;99.90;;;;;;5059711;28;20216;-81
2023/12/18 05:13:44;;;;;;;24.20;11.80;;;8.30;99.90;;;;;;5054773;28;20041;-81
2023/12/18 05:16:10;;;;;;;22.90;11.40;;;8.60;99.90;;;;;;5056929;28;20049;-81
2023/12/18 05:18:36;;;;;;;23.50;11.77;;;8.30;99.90;;;;;;5066023;28;20068;-82
2023/12/18 05:21:05;;;;;;;22.33;12.50;;;8.20;99.90;;;;;;5066717;28;20074;-81
2023/12/18 05:23:31;;;;;;;27.35;12.73;;;8.10;99.90;;;;;;5074878;28;20078;-81
2023/12/18 05:25:57;;;;;;;33.63;13.02;;;8.10;99.90;;;;;;5074563;28;20048;-81
2023/12/18 05:28:24;;;;;;;31.85;12.55;;;8.20;99.90;;;;;;5074515;28;20050;-82
2023/12/18 05:30:50;;;;;;;23.58;12.00;;;8.10;99.90;;;;;;5071293;28;20048;-81
2023/12/18 05:33:15;;;;;;;24.90;11.75;;;8.10;99.90;;;;;;5073121;28;20086;-81
2023/12/18 05:35:41;;;;;;;23.90;12.25;;;8.10;99.90;;;;;;5072491;28;20516;-83
2023/12/18 05:38:07;;;;;;;24.55;12.20;;;8.10;99.90;;;;;;5057595;28;20532;-81
2023/12/18 05:40:34;;;;;;;24.23;11.35;;;8.40;99.90;;;;;;5056779;28;20049;-81
2023/12/18 05:42:59;;;;;;;23.67;11.70;;;8.10;99.90;;;;;;5053101;28;20094;-81
2023/12/18 05:45:25;;;;;;;22.60;11.68;;;8.20;99.90;;;;;;5054226;28;20029;-81
2023/12/18 05:47:50;;;;;;;27.70;12.30;;;8.10;99.90;;;;;;5054623;28;20237;-81
2023/12/18 05:50:16;;;;;;;25.73;11.65;;;8.30;99.90;;;;;;5058293;28;20501;-81
2023/12/18 05:52:42;;;;;;;25.23;11.40;;;8.30;99.90;;;;;;5054259;28;20037;-81
2023/12/18 05:55:09;;;;;;;24.40;11.40;;;8.10;99.90;;;;;;5053988;28;20049;-81
2023/12/18 05:57:36;;;;;;;25.33;11.13;;;8.60;99.90;;;;;;5070375;28;20048;-82
2023/12/18 06:00:03;;;;;;;30.30;11.45;;;8.10;99.90;;;;;;5065983;28;20128;-81
2023/12/18 06:02:29;;;;;;;30.13;11.88;;;8.10;99.90;;;;;;5055321;28;20106;-81
2023/12/18 06:04:55;;;;;;;26.80;11.60;;;8.20;99.90;;;;;;5074178;28;20044;-81
2023/12/18 06:07:20;;;;;;;35.85;12.55;;;8.50;99.90;;;;;;5064529;28;20048;-81
2023/12/18 06:09:46;;;;;;;24.77;10.48;;;8.20;99.90;;;;;;5054154;28;20136;-81
2023/12/18 06:12:12;;;;;;;24.55;12.38;;;8.10;99.90;;;;;;5064369;28;20053;-81
2023/12/18 06:14:38;;;;;;;27.10;11.73;;;8.10;99.90;;;;;;5066848;28;20437;-81
2023/12/18 06:17:04;;;;;;;23.60;11.13;;;8.60;99.90;;;;;;5040842;28;20419;-82
2023/12/18 06:19:29;;;;;;;22.02;10.68;;;8.20;99.90;;;;;;5058028;28;20092;-80
2023/12/18 06:21:55;;;;;;;23.50;10.80;;;8.20;99.90;;;;;;5053087;28;20111;-81
2023/12/18 06:24:21;;;;;;;22.23;10.93;;;8.20;99.90;;;;;;5052670;28;20045;-80
2023/12/18 06:26:46;;;;;;;24.15;11.68;;;8.20;99.90;;;;;;5056821;28;20385;-80
2023/12/18 06:29:12;;;;;;;21.05;10.50;;;8.20;99.90;;;;;;5052714;28;20132;-81
2023/12/18 06:31:37;;;;;;;25.48;10.23;;;8.20;99.90;;;;;;5070415;28;20074;-80
2023/12/18 06:34:03;;;;;;;18.98;10.27;;;8.20;99.90;;;;;;5073146;28;20067;-80
2023/12/18 06:36:29;;;;;;;23.25;11.30;;;8.20;99.90;;;;;;5066742;28;20163;-81
2023/12/18 06:38:55;;;;;;;25.63;10.25;;;8.20;99.90;;;;;;5073648;28;20045;-81
2023/12/18 06:41:21;;;;;;;23.40;10.70;;;8.20;99.90;;;;;;5067622;28;20064;-81
2023/12/18 06:43:47;;;;;;;24.63;11.15;;;8.20;99.90;;;;;;5036600;28;20044;-82
2023/12/18 06:46:13;;;;;;;27.90;11.05;;;8.20;99.90;;;;;;5053355;28;20106;-82
2023/12/18 06:48:40;;;;;;;22.58;11.23;;;8.20;99.90;;;;;;5064705;28;20135;-82
2023/12/18 06:51:09;;;;;;;23.45;10.68;;;8.20;99.90;;;;;;5073033;28;20059;-83
2023/12/18 06:53:35;;;;;;;20.63;10.65;;;8.20;99.90;;;;;;5072930;28;20052;-82
2023/12/18 06:56:00;;;;;;;30.65;11.55;;;8.20;99.90;;;;;;5062961;28;20049;-82
2023/12/18 06:58:28;;;;;;;24.90;10.90;;;8.20;99.90;;;;;;5060616;28;20059;-81
2023/12/18 07:00:54;;;;;;;23.23;11.82;;;8.20;99.90;;;;;;5062857;28;20091;-82
2023/12/18 07:03:20;;;;;;;23.02;11.45;;;8.20;99.90;;;;;;5058313;28;20377;-82
2023/12/18 07:05:46;;;;;;;26.65;11.93;;;8.60;99.90;;;;;;5036326;28;20080;-83
2023/12/18 07:08:12;;;;;;;23.88;11.05;;;8.20;99.90;;;;;;5067571;28;20471;-83
2023/12/18 07:10:38;;;;;;;24.52;12.38;;;8.20;99.90;;;;;;5072806;28;20063;-82
2023/12/18 07:13:04;;;;;;;29.38;11.98;;;8.30;99.90;;;;;;5072707;28;20105;-82
2023/12/18 07:15:30;;;;;;;31.27;12.00;;;8.20;99.90;;;;;;5058506;28;20044;-84
2023/12/18 07:17:58;;;;;;;28.77;12.55;;;8.20;99.90;;;;;;5071009;28;20106;-82
2023/12/18 07:20:24;;;;;;;25.60;12.45;;;8.20;99.90;;;;;;5052382;28;20088;-83
2023/12/18 07:22:50;;;;;;;35.90;12.85;;;8.20;99.90;;;;;;5053790;28;20049;-85
2023/12/18 07:25:15;;;;;;;23.33;11.35;;;8.30;99.90;;;;;;5052334;28;20203;-83
2023/12/18 07:27:41;;;;;;;29.42;13.48;;;8.20;99.90;;;;;;5053685;28;20129;-84
2023/12/18 07:30:08;;;;;;;27.92;12.18;;;8.20;99.90;;;;;;5052572;28;20453;-82
2023/12/18 07:32:35;;;;;;;18.55;11.13;;;8.20;99.90;;;;;;5052804;28;20049;-82
2023/12/18 07:35:01;;;;;;;24.42;11.40;;;8.20;99.90;;;;;;5053030;28;20052;-82
2023/12/18 07:37:30;;;;;;;27.13;12.93;;;8.20;99.90;;;;;;5052021;28;20060;-83
2023/12/18 07:39:56;;;;;;;28.40;13.13;;;8.20;99.90;;;;;;5053650;28;20044;-82
2023/12/18 07:42:22;;;;;;;27.17;13.05;;;8.70;99.90;;;;;;5052365;28;20060;-82
2023/12/18 07:44:48;;;;;;;29.23;13.55;;;8.20;99.90;;;;;;5052527;28;20068;-83
2023/12/18 07:47:17;;;;;;;27.48;12.45;;;8.20;99.90;;;;;;5035829;28;20473;-84
2023/12/18 07:49:42;;;;;;;25.88;12.07;;;8.20;99.90;;;;;;5064544;28;20141;-84
2023/12/18 07:52:08;;;;;;;23.95;12.25;;;8.20;99.90;;;;;;5057556;28;20148;-83
2023/12/18 07:54:34;;;;;;;25.50;13.00;;;8.20;99.90;;;;;;5054787;28;20041;-84
2023/12/18 07:57:00;;;;;;;27.45;13.13;;;8.20;99.90;;;;;;5052278;28;20047;-83
2023/12/18 07:59:28;;;;;;;33.28;13.93;;;8.20;99.90;;;;;;5051534;28;20357;-84
2023/12/18 08:01:53;;;;;;;29.98;12.85;;;8.20;99.90;;;;;;5058381;28;20127;-85
2023/12/18 08:04:20;;;;;;;23.75;12.82;;;8.20;99.90;;;;;;5053002;28;20095;-84
2023/12/18 08:06:47;;;;;;;32.03;13.20;;;8.30;99.90;;;;;;5052485;28;20076;-85
2023/12/18 08:09:13;;;;;;;31.55;14.57;;;8.20;99.90;;;;;;5059530;28;20376;-84
2023/12/18 08:11:39;;;;;;;31.13;14.27;;;8.70;99.90;;;;;;5063252;28;20091;-83
2023/12/18 08:14:05;;;;;;;26.65;13.30;;;8.20;99.90;;;;;;5050763;28;20507;-84
2023/12/18 08:16:31;;;;;;;29.10;14.07;;;8.30;99.90;;;;;;5052460;28;20049;-84
2023/12/18 08:18:58;;;;;;;32.80;14.50;;;8.30;99.90;;;;;;5063740;28;20470;-85
2023/12/18 08:21:25;;;;;;;26.63;14.65;;;8.20;99.90;;;;;;5071794;28;20051;-84
2023/12/18 08:23:51;;;;;;;29.42;14.45;;;8.30;99.90;;;;;;5055355;28;20047;-84
2023/12/18 08:26:17;;;;;;;28.52;14.13;;;8.20;99.90;;;;;;5070302;28;20383;-85
2023/12/18 08:28:44;;;;;;;29.92;13.32;;;8.40;99.90;;;;;;5018947;28;20376;-84
2023/12/18 08:31:11;;;;;;;30.85;14.88;;;8.30;99.90;;;;;;5052111;28;20037;-84
2023/12/18 08:33:40;;;;;;;32.65;14.70;;;8.30;99.90;;;;;;5051786;28;20048;-85
2023/12/18 08:36:06;;;;;;;28.88;14.20;;;8.30;99.90;;;;;;5052124;28;20049;-84
2023/12/18 08:38:32;;;;;;;29.02;14.40;;;8.30;99.90;;;;;;5051734;28;20041;-84
2023/12/18 08:40:57;;;;;;;31.08;14.93;;;8.30;99.90;;;;;;5063207;28;20048;-84
2023/12/18 08:43:23;;;;;;;31.08;14.27;;;8.30;99.90;;;;;;5071618;28;20052;-84
2023/12/18 08:45:49;;;;;;;29.33;14.25;;;8.30;99.90;;;;;;5071795;28;20410;-84
2023/12/18 08:48:15;;;;;;;27.30;13.80;;;8.30;99.90;;;;;;5071914;28;20056;-84
2023/12/18 08:50:41;;;;;;;29.38;14.38;;;8.30;99.90;;;;;;5072715;28;20071;-83
2023/12/18 08:53:07;;;;;;;26.50;14.45;;;8.30;99.90;;;;;;5072692;28;20045;-84
2023/12/18 08:55:38;;;;;;;28.83;13.82;;;8.40;99.90;;;;;;5071555;28;20446;-85
2023/12/18 08:58:05;;;;;;;28.40;14.57;;;8.30;99.90;;;;;;5071695;28;20052;-81
2023/12/18 09:00:31;;;;;;;28.92;15.48;;;8.30;99.90;;;;;;5072665;28;20106;-82
2023/12/18 09:02:58;;;;;;;24.63;15.25;;;8.30;99.90;;;;;;5052350;28;20481;-83
2023/12/18 09:05:24;;;;;;;28.45;16.00;;;8.30;99.90;;;;;;5051711;28;20365;-83
2023/12/18 09:07:50;;;;;;;31.73;16.23;;;8.30;99.90;;;;;;5052587;28;20060;-82
2023/12/18 09:10:17;;;;;;;35.35;16.70;;;8.30;99.90;;;;;;5051331;28;20049;-82
2023/12/18 09:12:44;;;;;;;32.10;18.00;;;8.30;99.90;;;;;;5051410;28;20512;-83
2023/12/18 09:15:10;;;;;;;32.72;17.85;;;8.80;99.90;;;;;;5051621;28;20041;-82
2023/12/18 09:17:36;;;;;;;32.03;18.33;;;8.30;99.90;;;;;;5051345;28;20530;-82
2023/12/18 09:20:02;;;;;;;31.95;17.75;;;8.30;99.90;;;;;;5051636;28;20136;-82
2023/12/18 09:22:28;;;;;;;34.42;17.55;;;8.20;99.90;;;;;;5052365;28;20120;-83
2023/12/18 09:24:54;;;;;;;30.85;17.10;;;8.60;99.90;;;;;;5059665;28;20517;-83
2023/12/18 09:27:20;;;;;;;32.25;17.10;;;8.20;99.90;;;;;;5055160;28;20051;-82
2023/12/18 09:29:45;;;;;;;31.10;18.80;;;8.20;99.90;;;;;;5055862;28;20041;-83
2023/12/18 09:32:11;;;;;;;35.58;17.08;;;8.20;99.90;;;;;;5074284;28;20048;-83
2023/12/18 09:34:37;;;;;;;24.65;16.05;;;8.70;99.90;;;;;;5074488;28;20044;-83
2023/12/18 09:37:03;;;;;;;36.08;18.10;;;8.30;99.90;;;;;;5067064;28;20052;-83
2023/12/18 09:39:29;;;;;;;32.13;16.77;;;8.20;99.90;;;;;;5055866;28;20057;-83
2023/12/18 09:42:04;;;;;;;29.85;18.38;;;8.20;99.90;;;;;;5055774;28;20396;-83
2023/12/18 09:44:31;;;;;;;35.85;18.45;;;8.20;99.90;;;;;;5055898;28;20048;-83
2023/12/18 09:47:00;;;;;;;32.35;18.98;;;8.40;99.90;;;;;;5055634;28;20439;-82
2023/12/18 09:49:26;;;;;;;32.15;17.90;;;8.30;99.90;;;;;;5054283;28;20059;-82
2023/12/18 09:52:00;;;;;;;32.60;18.85;;;8.20;99.90;;;;;;5057494;28;20590;-84
2023/12/18 09:54:27;;;;;;;32.95;18.63;;;8.20;99.90;;;;;;5060187;28;20037;-85
2023/12/18 09:56:55;;;;;;;33.80;17.52;;;8.30;99.90;;;;;;5062697;28;21045;-82
2023/12/18 09:59:21;;;;;;;35.33;17.25;;;8.60;99.90;;;;;;5064957;28;20107;-81
2023/12/18 10:01:46;;;;;;;37.53;18.58;;;8.30;99.90;;;;;;5067751;28;20044;-82
2023/12/18 10:04:13;;;;;;;34.60;17.90;;;8.40;99.90;;;;;;5059445;28;20052;-84
2023/12/18 10:06:39;;;;;;;34.25;17.38;;;8.30;99.90;;;;;;5061140;28;20041;-84
2023/12/18 10:09:12;;;;;;;32.15;16.25;;;8.30;99.90;;;;;;5074891;28;20044;-84
2023/12/18 10:11:38;;;;;;;31.35;17.42;;;8.30;99.90;;;;;;5064998;28;20366;-85
2023/12/18 10:14:04;;;;;;;36.17;17.13;;;8.30;99.90;;;;;;5045181;28;20048;-85
2023/12/18 10:16:32;;;;;;;32.90;17.85;;;8.40;99.90;;;;;;5057089;28;20120;-85
2023/12/18 10:18:58;;;;;;;37.42;17.83;;;8.60;99.90;;;;;;5045345;28;20071;-85
2023/12/18 10:21:25;;;;;;;31.30;17.67;;;8.40;99.90;;;;;;5048911;28;20045;-84
2023/12/18 10:23:54;;;;;;;29.98;17.77;;;8.40;99.90;;;;;;5055859;28;20049;-84
2023/12/18 10:26:20;;;;;;;32.95;18.13;;;8.50;99.90;;;;;;5073289;28;20446;-84
2023/12/18 10:28:52;;;;;;;32.55;17.17;;;8.50;99.90;;;;;;5055610;28;20106;-83
2023/12/18 10:31:18;;;;;;;32.90;17.63;;;8.50;99.90;;;;;;5065988;28;20481;-84
2023/12/18 10:33:44;;;;;;;33.60;16.35;;;8.50;99.90;;;;;;5064672;28;20049;-85
2023/12/18 10:36:10;;;;;;;33.70;17.45;;;8.50;99.90;;;;;;5042643;28;20065;-83
2023/12/18 10:38:40;;;;;;;31.55;16.52;;;8.60;99.90;;;;;;5073499;28;20546;-83
2023/12/18 10:41:09;;;;;;;38.50;18.13;;;8.80;99.90;;;;;;5073494;28;20412;-83
2023/12/18 10:43:35;;;;;;;34.35;17.33;;;8.60;99.90;;;;;;5053978;28;20080;-84
2023/12/18 10:46:03;;;;;;;33.45;17.27;;;8.60;99.90;;;;;;5053278;28;20077;-83
2023/12/18 10:48:29;;;;;;;34.97;17.52;;;8.60;99.90;;;;;;5055810;28;20450;-83
2023/12/18 10:50:56;;;;;;;30.08;17.40;;;8.70;99.90;;;;;;5061165;28;20059;-84
2023/12/18 10:53:23;;;;;;;32.55;17.33;;;8.70;99.90;;;;;;5064489;28;20052;-84
2023/12/18 10:55:50;;;;;;;34.25;17.40;;;8.70;99.90;;;;;;5072540;28;20049;-84
2023/12/18 10:58:19;;;;;;;36.15;18.35;;;8.80;99.90;;;;;;5056755;28;20045;-83
2023/12/18 11:00:45;;;;;;;33.65;17.80;;;8.70;99.90;;;;;;5054748;28;20057;-83
2023/12/18 11:03:15;;;;;;;31.48;17.50;;;8.80;99.90;;;;;;5070341;28;20044;-82
2023/12/18 11:05:42;;;;;;;35.47;16.92;;;8.70;99.90;;;;;;5058724;28;20053;-83
2023/12/18 11:08:10;;;;;;;33.45;16.88;;;8.80;99.90;;;;;;5060471;28;20048;-82
2023/12/18 11:10:36;;;;;;;35.17;17.27;;;8.80;99.90;;;;;;5054654;28;20555;-83
2023/12/18 11:13:12;;;;;;;33.47;18.15;;;8.70;99.90;;;;;;5069410;28;20045;-82
2023/12/18 11:15:56;;;;;;;31.45;17.25;;;8.80;99.90;;;;;;5055563;28;20087;-82
2023/12/18 11:18:55;;;;;;;35.08;15.93;;;8.70;99.90;;;;;;5055979;28;20048;-82
2023/12/18 11:21:22;;;;;;;40.53;18.15;;;8.80;99.90;;;;;;5056043;28;20048;-82
2023/12/18 11:23:52;;;;;;;30.95;17.77;;;8.80;99.90;;;;;;5053828;28;20523;-82
2023/12/18 11:26:19;;;;;;;30.23;17.05;;;8.80;99.90;;;;;;5052557;28;20049;-83
2023/12/18 11:28:48;;;;;;;33.55;18.05;;;8.80;99.90;;;;;;5019480;28;20045;-82
2023/12/18 11:31:20;;;;;;;37.40;17.35;;;8.80;99.90;;;;;;5058484;28;20076;-82
2023/12/18 11:34:12;;;;;;;29.48;17.13;;;8.80;99.90;;;;;;5072318;28;20052;-82
2023/12/18 11:36:39;;;;;;;39.40;19.10;;;8.80;99.90;;;;;;5072532;28;20073;-82
2023/12/18 11:39:05;;;;;;;36.92;19.02;;;8.80;99.90;;;;;;5068224;28;20492;-82
2023/12/18 11:41:50;;;;;;;36.78;17.65;;;8.90;99.90;;;;;;5037226;28;20037;-82
2023/12/18 11:44:15;;;;;;;33.15;18.77;;;8.80;99.90;;;;;;5070635;28;20476;-81
2023/12/18 11:46:44;;;;;;;31.20;18.27;;;8.80;99.90;;;;;;5070367;28;20047;-84
2023/12/18 11:49:12;;;;;;;31.42;17.88;;;8.80;99.90;;;;;;5058264;28;20154;-82
2023/12/18 11:51:42;;;;;;;28.70;17.63;;;8.80;99.90;;;;;;5055193;28;20146;-82
2023/12/18 11:54:12;;;;;;;29.42;16.90;;;8.80;99.90;;;;;;5058405;28;20076;-82
2023/12/18 11:56:40;;;;;;;38.53;19.27;;;8.80;99.90;;;;;;5070645;28;20380;-82
2023/12/18 11:59:07;;;;;;;33.88;18.40;;;8.80;99.90;;;;;;5084700;28;20059;-82
2023/12/18 12:01:33;;;;;;;29.45;17.48;;;8.80;99.90;;;;;;5063957;28;20052;-83
2023/12/18 12:03:59;;;;;;;33.17;18.70;;;8.80;99.90;;;;;;5071793;28;20052;-82
2023/12/18 12:06:26;;;;;;;30.85;17.77;;;8.80;99.90;;;;;;5062252;28;20040;-77
2023/12/18 12:08:51;;;;;;;31.35;17.35;;;8.80;99.90;;;;;;5068978;28;20052;-81
2023/12/18 12:11:18;;;;;;;33.13;17.08;;;8.80;99.90;;;;;;5052839;28;20072;-80
2023/12/18 12:13:45;;;;;;;34.55;19.23;;;8.80;99.90;;;;;;5056086;28;20503;-81
2023/12/18 12:16:18;;;;;;;38.35;18.00;;;8.80;99.90;;;;;;5054176;28;20205;-80
2023/12/18 12:18:50;;;;;;;33.47;17.40;;;8.80;99.90;;;;;;5052243;28;20571;-80
2023/12/18 12:21:17;;;;;;;33.60;17.73;;;8.80;99.90;;;;;;5051569;28;20044;-81
2023/12/18 12:23:49;;;;;;;33.63;18.50;;;8.80;99.90;;;;;;5060517;28;20045;-81
2023/12/18 12:26:20;;;;;;;32.80;17.23;;;8.80;99.90;;;;;;5066611;28;20106;-81
2023/12/18 12:28:48;;;;;;;36.38;17.63;;;8.90;99.90;;;;;;5071386;28;20053;-81
2023/12/18 12:31:19;;;;;;;30.20;16.95;;;8.90;99.90;;;;;;5070307;28;20543;-81
2023/12/18 12:33:50;;;;;;;30.85;17.30;;;8.80;99.90;;;;;;5071513;28;20040;-82
2023/12/18 12:36:19;;;;;;;36.75;17.88;;;8.90;99.90;;;;;;5072550;28;20056;-81